Webcam Zuidwest  Webcam Zuidwest


Onweer radar more information blitzortung!


Regen radar more information rain snow radar


Weerstation Alkmaar Centrum

Weerstation Luyksgestel

Website Noardburgum


U vindt ons ook hier:

Het Weer Aktueel

UK Metoffice

European Weather Network

Weather Underground

AWEKAS

Citizen Weather Observer Program (CWOP)

HAMweather, WeatherForYou, PWS Weather



Het weer levert geen direct gevaar op.    Er zijn geen waarschuwingen afgegeven.

METAR rapporten vliegvelden


Warning: A non-numeric value encountered in /home/tjeerqo264/domains/wsnoordbergum.nl/public_html/weather2/metar/wsMetarTxt.php on line 609

Warning: A non-numeric value encountered in /home/tjeerqo264/domains/wsnoordbergum.nl/public_html/weather2/metar/wsMetarTxt.php on line 609

Warning: A non-numeric value encountered in /home/tjeerqo264/domains/wsnoordbergum.nl/public_html/weather2/metar/wsMetarTxt.php on line 609

Warning: A non-numeric value encountered in /home/tjeerqo264/domains/wsnoordbergum.nl/public_html/weather2/metar/wsMetarTxt.php on line 609

Warning: A non-numeric value encountered in /home/tjeerqo264/domains/wsnoordbergum.nl/public_html/weather2/metar/wsMetarTxt.php on line 609
   
EHLW - Leeuwarden Rnlaf, Netherlands
Afstand tot: W 17 km
Gewijzigd: 11-04-2021 08:16
Light Showers, Regen, Grotendeels bewolkt  
Light Showers, Regen, Grotendeels bewolkt  
   Wind: Noorden 31.5 km/h
Wind: Noorden 31.5 km/h
Temperatuur: 3°C
Voelt als: -3°C
Dauwpunt: 2°C
Vochtigheid: 93%
Barometer: 1010 hPa
Bewolking: Grotendeels bewolkt
Zicht: 5 km
Bewolking: Licht bewolkt 600 ft,
Grotendeels bewolkt 800 ft,
Grotendeels bewolkt 1500 ft
EHLW 110616Z AUTO 01017KT 330V030 5000 -SHRA FEW006 BKN008 BKN015 03/02 Q1010 GRN
EHMA - Awg-1 Sea, Netherlands
Afstand tot: N 31 km
Gewijzigd: 11-04-2021 07:55
Grotendeels bewolkt  
Grotendeels bewolkt  
   Wind: Noorden 50 km/h
Wind: Noorden 50 km/h
Temperatuur: 3°C
Voelt als: -4°C
Dauwpunt: 2°C
Vochtigheid: 93%
Barometer: 1009 hPa
Bewolking: Grotendeels bewolkt
Zicht: meer dan 10 km
Bewolking: Licht bewolkt 600 ft,
Gedeeltelijk bewolkt 800 ft,
Grotendeels bewolkt 1200 ft
EHMA 110555Z AUTO 36027KT 9999 FEW006 SCT008 BKN012 03/02 Q1009 REDZ
EHGG - Groningen/Eelde, Netherlands
Afstand tot: OZO 40 km
Gewijzigd: 11-04-2021 07:55
Bewolking  
Bewolking  
   Wind: Noorden 24.1 km/h<br />Gust to 24.1 km/h
Wind: Noorden 24.1 km/h
Gust to 24.1 km/h
Temperatuur: 3°C
Voelt als: -2°C
Dauwpunt: 2°C
Vochtigheid: 93%
Barometer: 1008 hPa
Bewolking: Bewolking
Zicht: 8 km
Bewolking: Gedeeltelijk bewolkt 600 ft,
Grotendeels bewolkt 700 ft,
Bewolking 800 ft
EHGG 110555Z AUTO 35013G25KT 310V030 8000 SCT006 BKN007 OVC008 03/02 Q1008 TEMPO 7000
EHVL - Vlieland Island, Netherlands
Afstand tot: W 72 km
Gewijzigd: 11-04-2021 07:55
Grotendeels bewolkt  
Grotendeels bewolkt  
   Wind: Noorden 40.7 km/h
Wind: Noorden 40.7 km/h
Temperatuur: 4°C
Voelt als: -2°C
Dauwpunt: 1°C
Vochtigheid: 81%
Barometer: 1011 hPa
Bewolking: Grotendeels bewolkt
Zicht: meer dan 10 km
Bewolking: Gedeeltelijk bewolkt 1600 ft,
Grotendeels bewolkt 2000 ft,
Grotendeels bewolkt 3200 ft
EHVL 110555Z AUTO 01022KT 9999 SCT016 BKN020 BKN032 04/01 Q1011 WHT
EHMG - L9-Ff-1 Sea, Netherlands
Afstand tot: WNW 81 km
Gewijzigd: 11-04-2021 07:55
Grotendeels bewolkt  
Grotendeels bewolkt  
   Wind: Noorden 42.6 km/h
Wind: Noorden 42.6 km/h
Temperatuur: 4°C
Voelt als: -2°C
Dauwpunt: 0°C
Vochtigheid: 75%
Barometer: 1012 hPa
Bewolking: Grotendeels bewolkt
Zicht: meer dan 10 km
Bewolking: Licht bewolkt 1400 ft,
Gedeeltelijk bewolkt 4100 ft,
Grotendeels bewolkt 4700 ft
EHMG 110555Z AUTO 36023KT 9999 FEW014 SCT041 BKN047 04/M00 Q1012
EHKD - De Kooy (navy), Netherlands
Afstand tot: WZW 89 km
Gewijzigd: 11-04-2021 08:15
Bewolking  
Bewolking  
   Wind: Noorden 22.2 km/h
Wind: Noorden 22.2 km/h
Temperatuur: 4°C
Voelt als: -1°C
Dauwpunt: 0°C
Vochtigheid: 75%
Barometer: 1012 hPa
Bewolking: Bewolking
Zicht: meer dan 10 km
Bewolking: Licht bewolkt 2300 ft,
Gedeeltelijk bewolkt 2700 ft,
Bewolking 4600 ft
EHKD 110615Z AUTO 36012KT 320V040 9999 FEW023 SCT027 OVC046 04/00 Q1012 BLU NOSIG

Script ontwikkeld door  Saratoga-weather.org Aangepast voor de template door  Weerstation Leuven

Apparatuur in gebruik:

Weerstation
Davis Vantage pro 2

Weerprogramma
Meteobridge

Weercomputer
Meteobridge Nano SD

Webleverancier
Versio

Davis Vantage pro 2

Meteobridge

Meteobridge Nano SD

Versio